Time;durP1;ratioP1;P1;durP2;ratioP2;P2;SDS_P1;SDS_P2;PMS_P1;PMS_P2;Temp;Humidity;BMP_temperature;BMP_pressure;BME280_temperature;BME280_humidity;BME280_pressure;Samples;Min_cycle;Max_cycle;Signal;HPM_P1;HPM_P2
2023/03/10 00:00:35;;;;;;;101.22;62.22;;;;;;;4.00;100.00;97720.00;5054025;28;20378;-74
2023/03/10 00:03:01;;;;;;;102.25;65.07;;;;;;;4.06;100.00;97720.59;5053885;28;20017;-74
2023/03/10 00:05:26;;;;;;;111.28;63.22;;;;;;;4.19;100.00;97739.66;5054009;28;20029;-74
2023/03/10 00:07:51;;;;;;;102.85;64.45;;;;;;;4.21;100.00;97732.66;5053709;28;20071;-74
2023/03/10 00:10:18;;;;;;;89.78;60.10;;;;;;;4.20;100.00;97736.16;5054125;28;20458;-74
2023/03/10 00:12:43;;;;;;;104.57;63.72;;;;;;;4.09;100.00;97738.44;5053817;28;20063;-74
2023/03/10 00:15:09;;;;;;;96.50;61.83;;;;;;;4.01;100.00;97710.50;5053728;28;20028;-74
2023/03/10 00:17:35;;;;;;;111.47;66.45;;;;;;;3.99;100.00;97713.16;5053815;28;20073;-74
2023/03/10 00:20:01;;;;;;;109.35;64.20;;;;;;;3.95;100.00;97705.66;5053428;28;20480;-74
2023/03/10 00:22:26;;;;;;;102.05;59.70;;;;;;;3.84;100.00;97698.50;5053891;28;20025;-74
2023/03/10 00:24:51;;;;;;;94.15;59.63;;;;;;;3.85;100.00;97697.56;5053580;28;20028;-74
2023/03/10 00:27:17;;;;;;;86.43;54.58;;;;;;;4.09;100.00;97720.41;5053417;28;20045;-74
2023/03/10 00:29:42;;;;;;;92.55;56.28;;;;;;;4.02;100.00;97701.88;5053392;28;20434;-74
2023/03/10 00:32:08;;;;;;;93.30;56.88;;;;;;;3.85;100.00;97679.56;5053604;28;20043;-74
2023/03/10 00:34:33;;;;;;;102.97;59.33;;;;;;;4.15;100.00;97717.53;5053572;28;20033;-74
2023/03/10 00:36:58;;;;;;;94.45;56.60;;;;;;;4.13;100.00;97709.03;5053388;28;20032;-74
2023/03/10 00:39:24;;;;;;;102.13;57.95;;;;;;;4.18;100.00;97707.91;5053329;28;20031;-74
2023/03/10 00:41:49;;;;;;;95.50;57.28;;;;;;;4.19;100.00;97694.09;5051952;28;20037;-74
2023/03/10 00:44:14;;;;;;;100.15;56.97;;;;;;;4.14;100.00;97680.63;5053240;28;20033;-74
2023/03/10 00:46:40;;;;;;;97.18;55.75;;;;;;;4.23;100.00;97690.44;5053585;28;20039;-74
2023/03/10 00:49:07;;;;;;;105.13;62.92;;;;;;;4.25;100.00;97678.31;5053115;28;20054;-74
2023/03/10 00:51:33;;;;;;;103.50;61.75;;;;;;;4.18;100.00;97658.94;5053332;28;20029;-74
2023/03/10 00:54:02;;;;;;;105.53;59.85;;;;;;;4.14;100.00;97662.59;5052974;28;20033;-74
2023/03/10 00:56:28;;;;;;;90.97;56.90;;;;;;;4.19;100.00;97652.03;5053214;28;20048;-74
2023/03/10 00:58:58;;;;;;;96.10;55.88;;;;;;;4.08;100.00;97650.03;5052853;28;20029;-74
2023/03/10 01:01:31;;;;;;;89.88;53.42;;;;;;;4.29;100.00;97676.41;5052947;28;20473;-74
2023/03/10 01:03:59;;;;;;;92.97;55.53;;;;;;;4.12;100.00;97632.66;5052616;28;20476;-74
2023/03/10 01:06:24;;;;;;;96.72;54.47;;;;;;;4.08;100.00;97623.44;5053110;28;20111;-74
2023/03/10 01:08:50;;;;;;;92.13;58.15;;;;;;;4.30;100.00;97654.91;5052845;28;20107;-74
2023/03/10 01:11:18;;;;;;;95.88;55.45;;;;;;;4.24;100.00;97632.00;5052971;28;20071;-74
2023/03/10 01:13:44;;;;;;;88.63;54.03;;;;;;;4.41;100.00;97644.00;5052596;28;20032;-74
2023/03/10 01:16:10;;;;;;;93.53;55.92;;;;;;;4.11;100.00;97602.66;5052706;28;20492;-74
2023/03/10 01:18:36;;;;;;;89.95;58.55;;;;;;;4.43;100.00;97643.00;5052466;28;20033;-74
2023/03/10 01:21:01;;;;;;;86.90;55.25;;;;;;;4.29;100.00;97619.72;5052104;28;20052;-74
2023/03/10 01:23:27;;;;;;;83.63;55.85;;;;;;;4.46;100.00;97639.41;5052969;28;20108;-74
2023/03/10 01:25:53;;;;;;;97.55;61.30;;;;;;;4.52;100.00;97638.28;5052140;28;20049;-74
2023/03/10 01:28:19;;;;;;;89.88;54.78;;;;;;;4.33;100.00;97610.06;5052542;28;20503;-74
2023/03/10 01:30:45;;;;;;;87.10;52.88;;;;;;;4.49;100.00;97623.81;5052192;28;20021;-74
2023/03/10 01:33:11;;;;;;;86.00;52.33;;;;;;;4.49;100.00;97632.34;5052279;28;20446;-74
2023/03/10 01:35:38;;;;;;;94.43;56.53;;;;;;;4.41;100.00;97605.34;5052457;28;20116;-74
2023/03/10 01:38:04;;;;;;;87.70;50.58;;;;;;;4.31;100.00;97606.75;5052222;28;20028;-74
2023/03/10 01:40:29;;;;;;;100.53;61.42;;;;;;;4.41;100.00;97625.97;5052422;28;20036;-74
2023/03/10 01:43:13;;;;;;;92.45;53.97;;;;;;;4.36;100.00;97615.06;5051999;28;20037;-74
2023/03/10 01:45:38;;;;;;;92.03;51.42;;;;;;;4.24;100.00;97607.06;5052134;28;20025;-74
2023/03/10 01:48:04;;;;;;;91.88;52.30;;;;;;;4.05;100.00;97574.69;5052097;28;20389;-74
2023/03/10 01:50:30;;;;;;;88.53;52.90;;;;;;;4.14;100.00;97587.06;5052217;28;20170;-74
2023/03/10 01:52:57;;;;;;;83.75;53.25;;;;;;;4.15;100.00;97594.69;5051826;28;20606;-74
2023/03/10 01:55:30;;;;;;;86.40;50.75;;;;;;;3.91;100.00;97549.63;5052042;28;20124;-74
2023/03/10 01:57:56;;;;;;;82.90;52.03;;;;;;;4.16;100.00;97600.66;5051713;28;20044;-74
2023/03/10 02:00:25;;;;;;;87.68;55.13;;;;;;;4.05;100.00;97574.69;5052162;28;20104;-74
2023/03/10 02:03:06;;;;;;;98.50;61.53;;;;;;;4.23;100.00;97592.53;5051803;28;20048;-74
2023/03/10 02:05:38;;;;;;;90.78;51.95;;;;;;;4.14;100.00;97579.31;5051869;28;20508;-74
2023/03/10 02:08:05;;;;;;;88.13;49.58;;;;;;;4.06;100.00;97564.28;5051747;28;20025;-74
2023/03/10 02:10:31;;;;;;;95.53;55.92;;;;;;;4.04;100.00;97554.97;5051748;28;20059;-74
2023/03/10 02:12:57;;;;;;;102.85;62.42;;;;;;;4.27;100.00;97587.22;5051787;28;20068;-74
2023/03/10 02:15:22;;;;;;;100.40;58.30;;;;;;;4.10;100.00;97552.06;5051924;28;20051;-74
2023/03/10 02:17:50;;;;;;;84.15;49.83;;;;;;;4.17;100.00;97566.25;5051677;28;20490;-74
2023/03/10 02:20:53;;;;;;;75.85;49.60;;;;;;;4.29;100.00;97554.47;5051986;28;20025;-74
2023/03/10 02:23:50;;;;;;;80.65;50.47;;;;;;;4.28;100.00;97543.31;5051691;28;20484;-74
2023/03/10 02:27:10;;;;;;;86.55;49.97;;;;;;;4.38;100.00;97553.94;5051834;28;20473;-74
2023/03/10 02:29:40;;;;;;;85.10;51.17;;;;;;;4.34;100.00;97540.44;5029264;28;20026;-74
2023/03/10 02:32:06;;;;;;;86.00;53.35;;;;;;;4.42;100.00;97532.25;5029940;28;20168;-74
2023/03/10 02:34:32;;;;;;;76.10;47.40;;;;;;;4.53;100.00;97540.22;5033374;28;20104;-74
2023/03/10 02:36:57;;;;;;;78.18;49.30;;;;;;;4.54;100.00;97520.44;5033015;28;20084;-74
2023/03/10 02:39:22;;;;;;;73.70;47.22;;;;;;;4.45;100.00;97494.25;5033306;28;20481;-74
2023/03/10 02:41:49;;;;;;;68.50;46.65;;;;;;;4.74;100.00;97531.28;5032996;28;20545;-74
2023/03/10 02:44:18;;;;;;;75.70;47.35;;;;;;;4.71;100.00;97517.72;5033138;28;20037;-74
2023/03/10 02:46:43;;;;;;;74.85;44.97;;;;;;;4.68;100.00;97505.03;5033236;28;20091;-74
2023/03/10 02:49:09;;;;;;;75.68;47.03;;;;;;;4.73;100.00;97510.75;5032903;28;20025;-73
2023/03/10 02:51:39;;;;;;;80.22;48.08;;;;;;;4.71;100.00;97484.19;5033102;28;20436;-74
2023/03/10 02:54:07;;;;;;;70.72;47.50;;;;;;;4.70;100.00;97474.81;5032745;28;20037;-74
2023/03/10 02:56:33;;;;;;;74.13;45.45;;;;;;;4.68;100.00;97474.91;5033179;28;20382;-73
2023/03/10 02:58:59;;;;;;;85.40;51.03;;;;;;;4.67;100.00;97468.06;5032747;28;20022;-74
2023/03/10 03:01:25;;;;;;;74.55;46.97;;;;;;;4.74;100.00;97465.97;5032957;28;20045;-73
2023/03/10 03:03:51;;;;;;;69.82;43.90;;;;;;;4.87;100.00;97473.84;5049223;28;20098;-74
2023/03/10 03:06:17;;;;;;;67.00;44.70;;;;;;;4.75;100.00;97445.25;5055230;28;20078;-74
2023/03/10 03:08:42;;;;;;;63.40;42.28;;;;;;;4.57;100.00;97415.41;5055081;28;20021;-74
2023/03/10 03:11:08;;;;;;;69.28;41.85;;;;;;;4.77;100.00;97452.09;5054841;28;20111;-74
2023/03/10 03:13:33;;;;;;;60.58;41.47;;;;;;;4.71;100.00;97437.78;5055030;28;20033;-74
2023/03/10 03:15:59;;;;;;;62.92;38.88;;;;;;;4.86;100.00;97464.44;5054882;28;20036;-74
2023/03/10 03:18:24;;;;;;;61.83;37.97;;;;;;;4.91;100.00;97462.41;5054930;28;20053;-74
2023/03/10 03:20:49;;;;;;;53.38;37.75;;;;;;;5.10;100.00;97475.06;5054971;28;20051;-74
2023/03/10 03:23:15;;;;;;;53.65;35.63;;;;;;;5.13;100.00;97465.38;5054589;28;20060;-74
2023/03/10 03:25:41;;;;;;;50.63;36.05;;;;;;;4.78;100.00;97399.59;5054237;28;20053;-74
2023/03/10 03:28:08;;;;;;;50.42;33.22;;;;;;;5.11;100.00;97454.34;5053540;28;20024;-74
2023/03/10 03:30:34;;;;;;;52.35;33.50;;;;;;;5.06;100.00;97443.47;5053696;28;20029;-74
2023/03/10 03:33:01;;;;;;;57.03;36.75;;;;;;;5.03;100.00;97438.47;5053426;28;20025;-74
2023/03/10 03:35:32;;;;;;;51.67;36.60;;;;;;;5.08;100.00;97435.63;5053516;28;20388;-74
2023/03/10 03:37:58;;;;;;;52.83;37.42;;;;;;;5.21;100.00;97454.59;5053199;28;20029;-74
2023/03/10 03:40:25;;;;;;;50.85;35.88;;;;;;;5.17;100.00;97442.81;5053400;28;20079;-74
2023/03/10 03:42:52;;;;;;;47.63;33.35;;;;;;;5.00;100.00;97408.53;5053108;28;20025;-74
2023/03/10 03:45:21;;;;;;;46.65;34.30;;;;;;;5.04;100.00;97411.75;5053437;28;20128;-74
2023/03/10 03:47:46;;;;;;;45.67;30.48;;;;;;;5.18;100.00;97424.69;5053583;28;20476;-74
2023/03/10 03:50:14;;;;;;;41.30;29.05;;;;;;;5.41;100.00;97436.16;5052992;28;20039;-74
2023/03/10 03:52:41;;;;;;;47.08;30.20;;;;;;;5.36;100.00;97416.72;5053208;28;20036;-74
2023/03/10 03:55:08;;;;;;;42.58;29.35;;;;;;;5.44;100.00;97430.81;5053228;28;20058;-74
2023/03/10 03:57:34;;;;;;;41.75;28.58;;;;;;;5.49;100.00;97433.94;5053259;28;20025;-74
2023/03/10 03:59:59;;;;;;;37.30;25.85;;;;;;;5.45;100.00;97411.81;5052940;28;20035;-74
2023/03/10 04:02:24;;;;;;;35.70;25.75;;;;;;;5.49;100.00;97415.88;5053087;28;20025;-74
2023/03/10 04:04:52;;;;;;;35.17;24.60;;;;;;;5.50;100.00;97411.53;5052984;28;20033;-74
2023/03/10 04:07:18;;;;;;;33.72;24.45;;;;;;;5.74;100.00;97427.28;5052600;28;20545;-74
2023/03/10 04:09:43;;;;;;;43.30;29.88;;;;;;;5.76;100.00;97422.81;5053119;28;20115;-74
2023/03/10 04:12:09;;;;;;;41.75;28.13;;;;;;;5.78;100.00;97412.41;5053075;28;20024;-74
2023/03/10 04:14:35;;;;;;;46.25;29.98;;;;;;;5.84;100.00;97424.94;5053062;28;20087;-74
2023/03/10 04:17:01;;;;;;;36.15;23.77;;;;;;;5.69;100.00;97391.41;5052591;28;20492;-74
2023/03/10 04:19:26;;;;;;;34.58;22.52;;;;;;;5.81;100.00;97402.69;5052698;28;20033;-74
2023/03/10 04:21:51;;;;;;;30.13;21.90;;;;;;;5.97;100.00;97411.16;5052666;28;20027;-74
2023/03/10 04:24:17;;;;;;;30.83;23.48;;;;;;;5.90;100.00;97402.13;5052703;28;20043;-74
2023/03/10 04:26:42;;;;;;;25.77;20.60;;;;;;;5.76;100.00;97360.84;5014866;28;1105308;-74
2023/03/10 04:29:09;;;;;;;29.23;22.08;;;;;;;5.91;100.00;97372.78;5053491;28;20037;-74
2023/03/10 04:31:34;;;;;;;28.77;21.23;;;;;;;6.08;100.00;97391.56;5053618;28;20090;-74
2023/03/10 04:33:59;;;;;;;30.48;21.70;;;;;;;6.04;100.00;97372.84;5053237;28;20482;-74
2023/03/10 04:36:24;;;;;;;33.20;22.20;;;;;;;5.87;100.00;97340.31;5053437;28;20473;-74
2023/03/10 04:38:50;;;;;;;29.45;19.75;;;;;;;5.96;100.00;97344.91;5053715;28;20036;-74
2023/03/10 04:41:16;;;;;;;27.73;19.52;;;;;;;6.10;100.00;97358.69;5053380;28;20048;-74
2023/03/10 04:43:42;;;;;;;26.77;18.50;;;;;;;5.88;100.00;97325.66;5053575;28;20040;-74
2023/03/10 04:46:07;;;;;;;29.38;19.80;;;;;;;5.99;100.00;97343.91;5053204;28;20408;-74
2023/03/10 04:48:33;;;;;;;33.75;23.08;;;;;;;5.99;100.00;97355.06;5053333;28;20029;-74
2023/03/10 04:51:10;;;;;;;32.35;21.33;;;;;;;6.03;100.00;97363.44;5053006;28;20464;-74
2023/03/10 04:53:37;;;;;;;36.10;24.40;;;;;;;6.07;100.00;97367.50;5053171;28;20114;-74
2023/03/10 04:56:05;;;;;;;32.28;21.30;;;;;;;5.93;100.00;97328.78;5052105;28;20052;-74
2023/03/10 04:58:31;;;;;;;26.98;20.27;;;;;;;6.08;100.00;97355.41;5053124;28;20563;-74
2023/03/10 05:00:56;;;;;;;26.38;20.48;;;;;;;5.91;100.00;97335.78;5053099;28;20103;-74
2023/03/10 05:03:22;;;;;;;37.22;22.33;;;;;;;6.00;100.00;97358.47;5052804;28;20086;-74
2023/03/10 05:05:47;;;;;;;31.02;21.75;;;;;;;5.82;100.00;97334.63;5052892;28;20037;-74
2023/03/10 05:08:13;;;;;;;28.88;21.02;;;;;;;6.00;100.00;97367.06;5052819;28;20243;-74
2023/03/10 05:10:41;;;;;;;30.50;19.85;;;;;;;5.98;100.00;97355.16;5052932;28;20532;-74
2023/03/10 05:13:11;;;;;;;25.80;20.88;;;;;;;6.06;100.00;97360.66;5052616;28;20031;-74
2023/03/10 05:15:36;;;;;;;30.55;20.33;;;;;;;5.89;100.00;97327.28;5052627;28;20056;-74
2023/03/10 05:18:02;;;;;;;30.15;19.17;;;;;;;6.04;100.00;97346.19;5052352;28;20099;-74
2023/03/10 05:20:27;;;;;;;27.50;19.55;;;;;;;5.92;100.00;97312.47;5052871;28;20036;-74
2023/03/10 05:22:53;;;;;;;32.38;22.77;;;;;;;5.86;100.00;97314.59;5052716;28;20021;-74
2023/03/10 05:25:18;;;;;;;34.92;24.27;;;;;;;5.85;100.00;97298.25;5052292;28;20396;-74
2023/03/10 05:27:43;;;;;;;38.63;27.98;;;;;;;5.93;100.00;97305.53;5052463;28;20044;-74
2023/03/10 05:30:10;;;;;;;32.83;23.38;;;;;;;6.08;100.00;97325.22;5052225;28;20025;-73
2023/03/10 05:32:36;;;;;;;27.70;21.25;;;;;;;6.02;100.00;97296.34;5052161;28;20025;-74
2023/03/10 05:35:03;;;;;;;20.40;14.60;;;;;;;6.23;100.00;97315.59;5051967;28;20032;-74
2023/03/10 05:37:28;;;;;;;26.80;14.25;;;;;;;6.27;100.00;97316.22;5052509;28;20054;-74
2023/03/10 05:39:53;;;;;;;20.80;12.00;;;;;;;6.35;100.00;97317.38;5052458;28;20033;-74
2023/03/10 05:42:19;;;;;;;19.15;13.13;;;;;;;6.29;100.00;97294.53;5052020;28;20059;-74
2023/03/10 05:44:44;;;;;;;19.73;12.13;;;;;;;6.48;100.00;97325.97;5052292;28;20040;-73
2023/03/10 05:47:10;;;;;;;16.42;12.13;;;;;;;6.48;100.00;97313.03;5052027;28;20029;-73
2023/03/10 05:49:35;;;;;;;21.92;10.35;;;;;;;6.37;100.00;97291.44;5052346;28;20029;-73
2023/03/10 05:52:00;;;;;;;18.20;10.70;;;;;;;6.58;100.00;97317.63;5052038;28;20029;-73
2023/03/10 05:54:26;;;;;;;16.48;10.77;;;;;;;6.56;100.00;97306.53;5052001;28;20115;-73
2023/03/10 05:56:51;;;;;;;20.08;11.13;;;;;;;6.55;100.00;97303.13;5052411;28;20075;-73
2023/03/10 05:59:17;;;;;;;16.95;12.00;;;;;;;6.56;100.00;97298.78;5051947;28;20495;-74
2023/03/10 06:01:42;;;;;;;16.08;10.52;;;;;;;6.60;100.00;97302.81;5052065;28;20039;-74
2023/03/10 06:04:08;;;;;;;21.88;12.48;;;;;;;6.46;100.00;97272.72;5052036;28;20413;-73
2023/03/10 06:06:33;;;;;;;20.55;13.20;;;;;;;6.44;100.00;97277.16;5051822;28;20086;-74
2023/03/10 06:08:59;;;;;;;21.13;11.23;;;;;;;6.61;100.00;97301.88;5051979;28;20120;-74
2023/03/10 06:11:25;;;;;;;19.17;10.82;;;;;;;6.49;100.00;97267.34;5051633;28;20127;-74
2023/03/10 06:13:50;;;;;;;18.50;10.18;;;;;;;6.55;100.00;97271.25;5051876;28;20024;-74
2023/03/10 06:16:16;;;;;;;13.48;8.10;;;;;;;6.60;100.00;97266.59;5051432;28;20029;-74
2023/03/10 06:18:41;;;;;;;19.98;8.75;;;;;;;6.66;100.00;97267.00;5051626;28;20060;-74
2023/03/10 06:21:10;;;;;;;16.88;8.88;;;;;;;6.68;100.00;97253.97;5051538;28;20025;-74
2023/03/10 06:23:36;;;;;;;13.80;9.07;;;;;;;6.84;100.00;97264.09;5051816;28;20111;-74
2023/03/10 06:26:05;;;;;;;16.48;9.48;;;;;;;6.78;100.00;97254.16;5051804;28;20138;-75
2023/03/10 06:28:34;;;;;;;17.25;10.23;;;;;;;6.91;100.00;97275.66;5051801;28;20029;-76
2023/03/10 06:31:01;;;;;;;15.52;10.32;;;;;;;6.92;100.00;97264.38;5051632;28;20029;-74
2023/03/10 06:33:27;;;;;;;19.08;9.38;;;;;;;6.88;100.00;97255.19;5051649;28;20104;-75
2023/03/10 06:35:53;;;;;;;12.05;7.95;;;;;;;7.00;100.00;97269.84;5051741;28;20029;-74
2023/03/10 06:38:19;;;;;;;12.48;7.72;;;;;;;6.95;100.00;97253.78;5051515;28;20108;-75
2023/03/10 06:40:45;;;;;;;12.50;7.65;;;;;;;7.14;100.00;97274.03;5051710;28;20029;-74
2023/03/10 06:43:10;;;;;;;12.65;7.10;;;;;;;7.12;100.00;97261.22;5051210;28;20028;-74
2023/03/10 06:45:36;;;;;;;13.48;8.70;;;;;;;7.17;100.00;97260.91;5031544;28;20160;-74
2023/03/10 06:48:01;;;;;;;13.27;6.25;;;;;;;7.12;100.00;97245.69;5031837;28;20626;-74
2023/03/10 06:50:27;;;;;;;10.10;6.03;;;;;;;7.22;100.00;97256.22;5031372;28;20452;-75
2023/03/10 06:52:52;;;;;;;14.55;5.68;;;;;;;7.18;100.00;97231.47;5031658;28;20112;-74
2023/03/10 06:55:18;;;;;;;12.80;6.05;;;;;;;7.33;100.00;97265.78;5031233;28;20029;-74
2023/03/10 06:57:43;;;;;;;10.25;6.53;;;;;;;7.29;100.00;97248.81;5031526;28;20033;-74
2023/03/10 07:00:14;;;;;;;16.20;6.95;;;;;;;7.27;100.00;97227.41;5031228;28;20029;-74
2023/03/10 07:02:40;;;;;;;10.75;5.38;;;;;;;7.31;100.00;97221.88;5031648;28;20539;-74
2023/03/10 07:05:06;;;;;;;15.48;6.78;;;;;;;7.46;100.00;97241.50;5031362;28;20033;-74
2023/03/10 07:07:31;;;;;;;12.38;5.60;;;;;;;7.47;100.00;97232.78;5031598;28;20381;-75
2023/03/10 07:09:56;;;;;;;10.80;5.68;;;;;;;7.50;100.00;97230.00;5031579;28;20025;-75
2023/03/10 07:12:23;;;;;;;11.13;6.20;;;;;;;7.58;100.00;97234.59;5029988;28;20469;-75
2023/03/10 07:14:50;;;;;;;10.88;6.57;;;;;;;7.70;100.00;97244.06;5031297;28;20040;-75
2023/03/10 07:17:15;;;;;;;15.40;6.05;;;;;;;7.58;100.00;97255.31;5031336;28;20034;-75
2023/03/10 07:19:41;;;;;;;11.27;5.70;;;;;;;7.19;100.00;97239.13;5034613;28;20033;-75
2023/03/10 07:22:06;;;;;;;12.13;5.13;;;;;;;6.89;100.00;97211.06;5034898;28;20021;-75
2023/03/10 07:24:32;;;;;;;12.27;5.05;;;;;;;6.96;100.00;97233.00;5034993;28;20366;-75
2023/03/10 07:27:00;;;;;;;8.32;4.28;;;;;;;7.00;100.00;97226.69;5035240;28;20073;-75
2023/03/10 07:29:26;;;;;;;10.48;4.60;;;;;;;7.02;100.00;97233.50;5034581;28;20420;-75
2023/03/10 07:31:52;;;;;;;12.15;4.97;;;;;;;7.13;100.00;97239.56;5034977;28;20394;-75
2023/03/10 07:34:17;;;;;;;8.98;5.22;;;;;;;7.00;100.00;97238.78;5034625;28;20025;-75
2023/03/10 07:36:42;;;;;;;11.40;6.57;;;;;;;6.78;100.00;97212.75;5034828;28;20385;-75
2023/03/10 07:39:08;;;;;;;13.90;5.53;;;;;;;6.90;100.00;97227.41;5033240;28;20086;-75
2023/03/10 07:41:33;;;;;;;9.38;4.90;;;;;;;7.05;100.00;97241.06;5034635;28;20118;-75
2023/03/10 07:43:59;;;;;;;10.57;5.40;;;;;;;6.86;100.00;97219.03;5034456;28;20055;-75
2023/03/10 07:46:24;;;;;;;12.80;6.13;;;;;;;6.91;100.00;97244.59;5034219;28;20030;-75
2023/03/10 07:48:51;;;;;;;13.93;7.13;;;;;;;6.76;100.00;97220.63;5034648;28;20235;-75
2023/03/10 07:51:17;;;;;;;17.15;7.70;;;;;;;6.86;100.00;97252.69;5034309;28;20378;-75
2023/03/10 07:53:43;;;;;;;16.55;8.82;;;;;;;6.71;100.00;97238.25;5034387;28;20028;-75
2023/03/10 07:56:11;;;;;;;18.65;7.88;;;;;;;6.89;100.00;97256.81;5034010;28;20037;-75
2023/03/10 07:58:37;;;;;;;13.95;8.85;;;;;;;6.61;100.00;97217.34;5034192;28;20068;-75
2023/03/10 08:01:03;;;;;;;14.90;7.93;;;;;;;6.87;100.00;97259.53;5034430;28;20535;-75
2023/03/10 08:03:29;;;;;;;16.23;6.82;;;;;;;6.90;100.00;97246.34;5034132;28;20040;-75
2023/03/10 08:05:54;;;;;;;16.35;8.68;;;;;;;6.94;100.00;97241.78;5034259;28;20034;-75
2023/03/10 08:08:20;;;;;;;20.10;9.27;;;;;;;6.78;100.00;97199.81;5033942;28;20058;-75
2023/03/10 08:10:46;;;;;;;18.80;8.93;;;;;;;7.02;100.00;97228.31;5034086;28;20488;-75
2023/03/10 08:13:12;;;;;;;18.92;8.00;;;;;;;6.94;100.00;97221.91;5033729;28;20024;-75
2023/03/10 08:15:38;;;;;;;17.98;7.68;;;;;;;7.05;100.00;97220.34;5040613;28;20029;-75
2023/03/10 08:18:04;;;;;;;21.25;9.13;;;;;;;7.10;100.00;97226.84;5041405;28;20037;-75
2023/03/10 08:20:31;;;;;;;22.52;9.48;;;;;;;7.14;100.00;97222.28;5042945;28;20072;-75
2023/03/10 08:22:56;;;;;;;19.23;9.98;;;;;;;7.33;100.00;97248.50;5042876;28;20496;-75
2023/03/10 08:25:22;;;;;;;19.33;10.10;;;;;;;7.51;100.00;97248.94;5040857;28;20030;-75
2023/03/10 08:27:48;;;;;;;28.55;14.32;;;;;;;7.57;100.00;97237.31;5044343;28;20025;-74
2023/03/10 08:30:14;;;;;;;35.17;17.58;;;;;;;7.55;100.00;97239.19;5045939;28;20024;-74
2023/03/10 08:32:39;;;;;;;22.70;12.75;;;;;;;7.41;100.00;97225.44;5047484;28;20548;-74
2023/03/10 08:35:05;;;;;;;26.35;12.80;;;;;;;7.41;100.00;97219.44;5033547;28;20097;-74
2023/03/10 08:37:30;;;;;;;27.85;13.70;;;;;;;7.72;100.00;97229.25;5032947;28;20088;-75
2023/03/10 08:39:58;;;;;;;22.63;11.43;;;;;;;7.64;100.00;97244.53;5049171;28;20029;-74
2023/03/10 08:42:23;;;;;;;24.95;13.57;;;;;;;7.52;100.00;97242.81;5052844;28;20033;-75
2023/03/10 08:44:49;;;;;;;18.92;11.45;;;;;;;7.80;100.00;97233.88;5051492;28;20036;-75
2023/03/10 08:47:15;;;;;;;22.13;11.57;;;;;;;7.65;100.00;97235.81;5037880;28;20029;-74
2023/03/10 08:49:40;;;;;;;19.05;10.88;;;;;;;7.40;100.00;97202.28;5042690;28;20071;-74
2023/03/10 08:52:06;;;;;;;20.25;10.77;;;;;;;7.83;100.00;97232.78;5041022;28;20499;-75
2023/03/10 08:54:32;;;;;;;22.42;11.38;;;;;;;7.79;100.00;97226.19;5041336;28;20488;-75
2023/03/10 08:56:58;;;;;;;28.83;15.32;;;;;;;7.54;100.00;97212.44;5042202;28;20037;-75
2023/03/10 08:59:24;;;;;;;22.02;12.27;;;;;;;7.59;100.00;97222.50;5043554;28;20021;-75
2023/03/10 09:01:49;;;;;;;18.13;9.25;;;;;;;7.93;100.00;97241.56;5053022;28;20037;-75
2023/03/10 09:04:14;;;;;;;29.65;21.65;;;;;;;7.57;100.00;97219.16;5052939;28;20036;-75
2023/03/10 09:06:40;;;;;;;45.63;34.35;;;;;;;7.60;100.00;97237.09;5036223;28;20037;-75
2023/03/10 09:09:08;;;;;;;29.92;22.83;;;;;;;7.92;100.00;97247.66;5032940;28;20164;-75
2023/03/10 09:11:36;;;;;;;28.13;19.10;;;;;;;7.64;100.00;97220.38;5032755;28;20025;-75
2023/03/10 09:14:02;;;;;;;14.90;7.82;;;;;;;7.54;100.00;97215.03;5031508;28;20454;-75
2023/03/10 09:16:29;;;;;;;14.70;9.35;;;;;;;7.93;100.00;97232.00;5032495;28;20041;-75
2023/03/10 09:18:58;;;;;;;11.55;6.97;;;;;;;8.25;100.00;97218.38;5032526;28;20029;-75
2023/03/10 09:21:25;;;;;;;14.30;8.82;;;;;;;8.38;100.00;97226.09;5032483;28;20615;-75
2023/03/10 09:23:51;;;;;;;12.85;6.18;;;;;;;8.26;100.00;97220.06;5031331;28;20109;-75
2023/03/10 09:26:17;;;;;;;32.58;20.90;;;;;;;8.06;100.00;97215.53;5032389;28;20140;-75
2023/03/10 09:28:43;;;;;;;34.90;23.73;;;;;;;8.36;100.00;97213.22;5032785;28;20036;-75
2023/03/10 09:31:10;;;;;;;38.67;26.42;;;;;;;8.80;100.00;97229.72;5032621;28;20026;-75
2023/03/10 09:33:37;;;;;;;41.42;24.38;;;;;;;8.66;100.00;97222.19;5032359;28;20072;-75
2023/03/10 09:36:02;;;;;;;19.45;11.52;;;;;;;8.71;100.00;97220.06;5032447;28;20032;-75
2023/03/10 09:38:29;;;;;;;28.10;19.27;;;;;;;8.91;100.00;97232.31;5032483;28;20029;-75
2023/03/10 09:41:04;;;;;;;27.80;19.08;;;;;;;9.07;100.00;97208.56;5032368;28;20040;-75
2023/03/10 09:43:35;;;;;;;14.48;7.93;;;;;;;8.88;100.00;97211.78;5032309;28;20091;-75
2023/03/10 09:46:19;;;;;;;19.38;11.73;;;;;;;8.95;100.00;97238.94;5032387;28;20125;-75
2023/03/10 09:49:03;;;;;;;22.90;14.68;;;;;;;9.22;100.00;97233.31;5032217;28;20022;-75
2023/03/10 09:51:29;;;;;;;11.00;6.13;;;;;;;8.96;99.72;97221.56;5032227;28;20048;-75
2023/03/10 09:54:16;;;;;;;21.70;13.40;;;;;;;8.96;100.00;97213.78;5032364;28;20033;-75
2023/03/10 09:56:41;;;;;;;17.48;12.48;;;;;;;9.40;100.00;97225.84;5032487;28;20385;-75
2023/03/10 09:59:13;;;;;;;7.70;5.20;;;;;;;9.46;98.66;97204.53;5032389;28;20032;-76
2023/03/10 10:01:43;;;;;;;6.85;4.05;;;;;;;9.66;98.01;97221.13;5032146;28;20029;-75
2023/03/10 10:04:16;;;;;;;7.18;4.32;;;;;;;9.75;98.05;97224.75;5032168;28;20025;-76
2023/03/10 10:06:45;;;;;;;5.25;3.88;;;;;;;9.85;97.27;97219.59;5032058;28;20083;-76
2023/03/10 10:09:23;;;;;;;6.75;5.55;;;;;;;10.08;96.08;97183.91;5032037;28;20087;-76
2023/03/10 10:11:48;;;;;;;12.40;6.85;;;;;;;9.87;96.13;97189.13;5031937;28;20060;-75
2023/03/10 10:14:19;;;;;;;9.52;5.93;;;;;;;9.91;96.26;97201.75;5032068;28;20049;-76
2023/03/10 10:17:04;;;;;;;9.82;6.35;;;;;;;10.00;96.45;97174.97;5032057;28;20036;-75
2023/03/10 10:19:31;;;;;;;6.90;3.40;;;;;;;9.96;94.67;97202.19;5031708;28;20112;-75
2023/03/10 10:22:06;;;;;;;6.07;4.72;;;;;;;9.70;95.72;97178.34;5031962;28;20092;-75
2023/03/10 10:24:31;;;;;;;9.55;6.57;;;;;;;9.89;97.31;97189.81;5031563;28;20053;-76
2023/03/10 10:26:57;;;;;;;12.57;6.63;;;;;;;10.37;96.10;97195.31;5031956;28;20115;-75
2023/03/10 10:29:25;;;;;;;10.65;5.88;;;;;;;10.43;94.46;97191.34;5031508;28;20465;-76
2023/03/10 10:32:08;;;;;;;8.05;5.13;;;;;;;10.70;94.23;97204.63;5031862;28;20076;-75
2023/03/10 10:34:35;;;;;;;6.82;3.38;;;;;;;11.06;92.29;97184.13;5031392;28;20030;-76
2023/03/10 10:37:01;;;;;;;7.40;3.65;;;;;;;11.16;91.18;97207.59;5031637;28;20030;-75
2023/03/10 10:39:31;;;;;;;10.07;4.40;;;;;;;10.96;91.30;97206.75;5031643;28;20021;-75
2023/03/10 10:42:19;;;;;;;5.65;3.78;;;;;;;10.99;92.64;97211.66;5031834;28;20034;-76
2023/03/10 10:44:45;;;;;;;6.05;3.55;;;;;;;11.44;90.54;97201.59;5031612;28;20025;-75
2023/03/10 10:47:27;;;;;;;6.28;3.60;;;;;;;11.43;90.40;97207.78;5031540;28;20032;-76
2023/03/10 10:49:53;;;;;;;6.03;3.15;;;;;;;11.40;89.89;97183.75;5031789;28;20030;-75
2023/03/10 10:52:22;;;;;;;7.25;3.83;;;;;;;11.87;89.03;97195.16;5031420;28;20496;-76
2023/03/10 10:54:57;;;;;;;7.15;3.90;;;;;;;11.96;86.72;97191.69;5035185;28;20381;-75
2023/03/10 10:57:34;;;;;;;5.72;3.70;;;;;;;11.72;87.58;97192.13;5035320;28;20373;-75
2023/03/10 11:00:33;;;;;;;6.28;3.70;;;;;;;11.87;88.16;97205.56;5035713;28;20033;-76
2023/03/10 11:02:59;;;;;;;6.50;3.55;;;;;;;11.90;85.86;97168.78;5013214;28;20046;-76
2023/03/10 11:05:34;;;;;;;10.50;3.95;;;;;;;11.77;86.95;97203.94;5012877;28;20048;-75
2023/03/10 11:08:15;;;;;;;5.90;4.07;;;;;;;11.50;88.05;97181.97;5012994;28;20132;-75
2023/03/10 11:10:41;;;;;;;6.07;4.47;;;;;;;11.87;87.29;97204.75;5012782;28;20033;-75
2023/03/10 11:13:21;;;;;;;8.93;5.70;;;;;;;11.66;87.77;97184.03;5013024;28;20037;-75
2023/03/10 11:16:05;;;;;;;8.75;5.28;;;;;;;11.42;89.12;97200.09;5012926;28;20121;-76
2023/03/10 11:18:41;;;;;;;11.77;6.32;;;;;;;11.22;90.28;97186.22;5012444;28;20084;-75
2023/03/10 11:21:13;;;;;;;15.30;9.25;;;;;;;11.55;89.12;97192.00;5012831;28;20430;-76